createdAt,value
2022-10-24T00:01:17.429Z,14.90
2022-10-24T00:03:44.595Z,14.80
2022-10-24T00:06:12.383Z,14.80
2022-10-24T00:08:40.767Z,14.80
2022-10-24T00:11:13.382Z,14.80
2022-10-24T00:13:40.420Z,14.80
2022-10-24T00:16:08.150Z,14.80
2022-10-24T00:18:35.308Z,14.70
2022-10-24T00:21:02.257Z,14.70
2022-10-24T00:23:30.140Z,14.70
2022-10-24T00:26:01.601Z,14.60
2022-10-24T00:28:29.419Z,14.60
2022-10-24T00:30:56.788Z,14.60
2022-10-24T00:33:24.045Z,14.60
2022-10-24T00:35:50.957Z,14.60
2022-10-24T00:38:17.901Z,14.60
2022-10-24T00:40:44.779Z,14.60
2022-10-24T00:43:37.754Z,14.60
2022-10-24T00:46:04.632Z,14.60
2022-10-24T00:48:43.632Z,14.60
2022-10-24T00:51:27.189Z,14.60
2022-10-24T00:54:01.182Z,14.60
2022-10-24T00:56:32.265Z,14.60
2022-10-24T00:59:03.922Z,14.60
2022-10-24T01:01:31.254Z,14.60
2022-10-24T01:03:58.111Z,14.60
2022-10-24T01:06:49.237Z,14.60
2022-10-24T01:09:18.824Z,14.60
2022-10-24T01:12:02.452Z,14.60
2022-10-24T01:14:32.373Z,14.60
2022-10-24T01:17:11.540Z,14.60
2022-10-24T01:19:53.576Z,14.50
2022-10-24T01:22:26.077Z,14.50
2022-10-24T01:25:11.722Z,14.50
2022-10-24T01:27:47.874Z,14.50
2022-10-24T01:30:17.290Z,14.40
2022-10-24T01:32:49.876Z,14.40
2022-10-24T01:35:56.494Z,14.40
2022-10-24T01:38:45.555Z,14.30
2022-10-24T01:41:17.383Z,14.20
2022-10-24T01:44:06.822Z,14.20
2022-10-24T01:46:39.532Z,14.20
2022-10-24T01:49:20.124Z,14.20
2022-10-24T01:51:51.102Z,14.10
2022-10-24T01:54:18.758Z,14.10
2022-10-24T01:56:45.805Z,14.00
2022-10-24T01:59:30.583Z,14.00
2022-10-24T02:02:00.376Z,14.10
2022-10-24T02:04:30.404Z,14.10
2022-10-24T02:07:02.064Z,14.10
2022-10-24T02:09:30.546Z,14.10
2022-10-24T02:11:58.755Z,14.00
2022-10-24T02:14:34.928Z,14.00
2022-10-24T02:17:03.291Z,14.00
2022-10-24T02:19:32.206Z,14.00
2022-10-24T02:22:12.194Z,14.00
2022-10-24T02:24:48.542Z,14.00
2022-10-24T02:27:21.390Z,13.90
2022-10-24T02:29:48.141Z,13.90
2022-10-24T02:32:46.684Z,13.90
2022-10-24T02:35:16.760Z,13.90
2022-10-24T02:37:51.356Z,13.90
2022-10-24T02:40:20.005Z,14.00
2022-10-24T02:42:49.198Z,13.90
2022-10-24T02:45:17.708Z,13.90
2022-10-24T02:47:45.953Z,13.90
2022-10-24T02:50:13.658Z,13.90
2022-10-24T02:52:43.034Z,13.90
2022-10-24T02:55:11.784Z,13.90
2022-10-24T02:57:39.293Z,13.90
2022-10-24T03:00:07.705Z,13.90
2022-10-24T03:02:35.667Z,13.90
2022-10-24T03:05:02.438Z,14.00
2022-10-24T03:09:55.928Z,14.00
2022-10-24T03:12:24.001Z,14.00
2022-10-24T03:14:50.756Z,14.10
2022-10-24T03:17:17.621Z,14.10
2022-10-24T03:19:45.227Z,14.10
2022-10-24T03:22:12.091Z,14.20
2022-10-24T03:24:44.257Z,14.10
2022-10-24T03:27:21.326Z,14.20
2022-10-24T03:29:48.173Z,14.20
2022-10-24T03:32:15.012Z,14.30
2022-10-24T03:34:41.968Z,14.40
2022-10-24T03:37:08.731Z,14.40
2022-10-24T03:39:35.630Z,14.40
2022-10-24T03:42:02.493Z,14.40
2022-10-24T03:44:29.395Z,14.40
2022-10-24T03:46:56.206Z,14.50
2022-10-24T03:49:23.096Z,14.40
2022-10-24T03:51:49.997Z,14.40
2022-10-24T03:54:16.810Z,14.40
2022-10-24T03:56:44.895Z,14.40
2022-10-24T03:59:11.694Z,14.30
2022-10-24T04:01:38.640Z,14.30
2022-10-24T04:04:05.636Z,14.30
2022-10-24T04:06:35.631Z,14.40
2022-10-24T04:09:04.056Z,14.30
2022-10-24T04:11:31.015Z,14.30
2022-10-24T04:13:58.400Z,14.20
2022-10-24T04:16:25.298Z,14.20
2022-10-24T04:18:52.514Z,14.30
2022-10-24T04:21:21.832Z,14.30
2022-10-24T04:23:49.059Z,14.40
2022-10-24T04:26:16.920Z,14.40
2022-10-24T04:28:44.011Z,14.40
2022-10-24T04:31:10.785Z,14.40
2022-10-24T04:33:38.577Z,14.40
2022-10-24T04:36:05.918Z,14.40
2022-10-24T04:38:33.592Z,14.40
2022-10-24T04:41:01.134Z,14.50
2022-10-24T04:43:28.061Z,14.50
2022-10-24T04:45:54.842Z,14.50
2022-10-24T04:48:21.588Z,14.50
2022-10-24T04:50:48.747Z,14.50
2022-10-24T04:53:16.033Z,14.60
2022-10-24T04:55:43.009Z,14.60
2022-10-24T04:58:09.817Z,14.60
2022-10-24T05:00:37.193Z,14.60
2022-10-24T05:03:04.510Z,14.60
2022-10-24T05:05:31.282Z,14.60
2022-10-24T05:07:58.076Z,14.70
2022-10-24T05:10:24.931Z,14.70
2022-10-24T05:12:51.989Z,14.70
2022-10-24T05:15:19.018Z,14.70
2022-10-24T05:17:45.804Z,14.70
2022-10-24T05:20:12.695Z,14.70
2022-10-24T05:22:39.751Z,14.70
2022-10-24T05:25:07.028Z,14.70
2022-10-24T05:27:33.967Z,14.70
2022-10-24T05:30:00.785Z,14.70
2022-10-24T05:32:27.543Z,14.70
2022-10-24T05:34:54.314Z,14.60
2022-10-24T05:37:21.144Z,14.60
2022-10-24T05:39:48.060Z,14.60
2022-10-24T05:42:15.368Z,14.60
2022-10-24T05:44:42.355Z,14.60
2022-10-24T05:47:09.348Z,14.70
2022-10-24T05:49:36.288Z,14.70
2022-10-24T05:52:03.585Z,14.60
2022-10-24T05:54:37.790Z,14.60
2022-10-24T05:57:15.690Z,14.60
2022-10-24T05:59:42.486Z,14.60
2022-10-24T06:02:18.182Z,14.60
2022-10-24T06:04:46.019Z,14.60
2022-10-24T06:07:12.946Z,14.60
2022-10-24T06:09:41.566Z,14.60
2022-10-24T06:12:11.984Z,14.60
2022-10-24T06:14:39.264Z,14.50
2022-10-24T06:17:09.069Z,14.50
2022-10-24T06:19:37.022Z,14.50
2022-10-24T06:22:05.465Z,14.50
2022-10-24T06:24:35.521Z,14.50
2022-10-24T06:27:02.724Z,14.50
2022-10-24T06:29:29.513Z,14.50
2022-10-24T06:31:56.413Z,14.50
2022-10-24T06:34:24.450Z,14.50
2022-10-24T06:36:51.582Z,14.50
2022-10-24T06:39:18.664Z,14.50
2022-10-24T06:41:45.507Z,14.50
2022-10-24T06:44:15.029Z,14.50
2022-10-24T06:46:41.970Z,14.40
2022-10-24T06:49:09.957Z,14.50
2022-10-24T06:51:37.798Z,14.40
2022-10-24T06:54:05.687Z,14.40
2022-10-24T06:56:32.491Z,14.40
2022-10-24T06:58:59.311Z,14.40
2022-10-24T07:01:27.572Z,14.40
2022-10-24T07:03:54.936Z,14.40
2022-10-24T07:06:26.099Z,14.50
2022-10-24T07:08:54.769Z,14.50
2022-10-24T07:11:21.831Z,14.60
2022-10-24T07:13:49.079Z,14.60
2022-10-24T07:16:16.452Z,14.70
2022-10-24T07:18:44.441Z,14.70
2022-10-24T07:21:18.507Z,14.70
2022-10-24T07:23:45.433Z,14.80
2022-10-24T07:26:18.310Z,14.80
2022-10-24T07:28:47.151Z,14.80
2022-10-24T07:31:17.763Z,14.80
2022-10-24T07:33:44.666Z,14.80
2022-10-24T07:36:19.835Z,14.70
2022-10-24T07:38:48.121Z,14.70
2022-10-24T07:41:15.429Z,14.70
2022-10-24T07:43:42.710Z,14.60
2022-10-24T07:46:11.803Z,14.60
2022-10-24T07:48:39.882Z,14.60
2022-10-24T07:51:08.629Z,14.70
2022-10-24T07:53:35.814Z,14.70
2022-10-24T07:56:05.608Z,14.70
2022-10-24T07:58:32.743Z,14.70
2022-10-24T08:01:14.453Z,14.70
2022-10-24T08:03:41.691Z,14.70
2022-10-24T08:06:11.288Z,14.70
2022-10-24T08:08:38.398Z,14.70
2022-10-24T08:11:16.341Z,14.70
2022-10-24T08:13:43.374Z,14.70
2022-10-24T08:16:12.856Z,14.60
2022-10-24T08:18:40.680Z,14.60
2022-10-24T08:21:10.155Z,14.60
2022-10-24T08:23:39.961Z,14.50
2022-10-24T08:26:12.863Z,14.50
2022-10-24T08:28:40.343Z,14.40
2022-10-24T08:31:11.071Z,14.40
2022-10-24T08:33:37.982Z,14.40
2022-10-24T08:36:11.628Z,14.30
2022-10-24T08:38:38.459Z,14.30
2022-10-24T08:41:06.739Z,14.20
2022-10-24T08:43:33.677Z,14.20
2022-10-24T08:46:25.985Z,14.10
2022-10-24T08:49:13.332Z,14.00
2022-10-24T08:51:46.557Z,14.00
2022-10-24T08:54:22.813Z,14.00
2022-10-24T08:56:54.593Z,13.90
2022-10-24T08:59:21.515Z,14.00
2022-10-24T09:01:52.906Z,13.90
2022-10-24T09:04:23.309Z,13.90
2022-10-24T09:06:53.472Z,13.90
2022-10-24T09:09:33.697Z,13.80
2022-10-24T09:12:03.879Z,13.80
2022-10-24T09:14:37.125Z,13.80
2022-10-24T09:19:58.873Z,13.80
2022-10-24T09:22:29.584Z,13.70
2022-10-24T09:25:05.949Z,13.70
2022-10-24T09:27:35.719Z,13.80
2022-10-24T09:30:04.318Z,13.80
2022-10-24T09:32:33.329Z,13.80
2022-10-24T09:35:05.912Z,13.80
2022-10-24T09:37:47.446Z,13.90
2022-10-24T09:40:14.580Z,13.90
2022-10-24T09:42:50.512Z,14.00
2022-10-24T09:45:18.894Z,14.00
2022-10-24T09:47:46.221Z,14.10
2022-10-24T09:50:21.022Z,14.10
2022-10-24T09:52:56.453Z,14.20
2022-10-24T09:55:28.614Z,14.20
2022-10-24T09:57:59.415Z,14.30
2022-10-24T10:00:30.465Z,14.30
2022-10-24T10:03:23.721Z,14.40
2022-10-24T10:05:54.478Z,14.40
2022-10-24T10:08:35.812Z,14.40
2022-10-24T10:11:08.727Z,14.50
2022-10-24T10:13:53.397Z,14.60
2022-10-24T10:16:36.876Z,14.60
2022-10-24T10:19:13.036Z,14.60
2022-10-24T10:22:02.440Z,14.60
2022-10-24T10:24:35.250Z,14.60
2022-10-24T10:27:02.452Z,14.70
2022-10-24T10:29:29.216Z,14.60
2022-10-24T10:32:11.442Z,14.60
2022-10-24T10:34:44.487Z,14.60
2022-10-24T10:37:30.698Z,14.60
2022-10-24T10:40:20.846Z,14.70
2022-10-24T10:42:59.566Z,14.70
2022-10-24T10:45:47.916Z,14.70
2022-10-24T10:48:20.729Z,14.80
2022-10-24T10:51:18.602Z,14.80
2022-10-24T10:53:57.458Z,14.90
2022-10-24T10:56:49.699Z,15.00
2022-10-24T10:59:35.801Z,15.00
2022-10-24T11:02:33.509Z,15.10
2022-10-24T11:05:44.688Z,15.00
2022-10-24T11:08:39.628Z,15.00
2022-10-24T11:11:14.968Z,15.00
2022-10-24T11:14:03.440Z,15.00
2022-10-24T11:16:31.546Z,15.00
2022-10-24T11:19:07.012Z,15.00
2022-10-24T11:21:36.671Z,15.10
2022-10-24T11:24:24.124Z,15.10
2022-10-24T11:27:03.978Z,15.20
2022-10-24T11:29:40.565Z,15.20
2022-10-24T11:32:28.256Z,15.20
2022-10-24T11:35:00.695Z,15.30
2022-10-24T11:37:38.658Z,15.30
2022-10-24T11:43:24.887Z,15.40
2022-10-24T11:46:20.686Z,15.50
2022-10-24T11:49:02.985Z,15.70
2022-10-24T11:52:00.634Z,15.80
2022-10-24T11:55:08.156Z,16.00
2022-10-24T11:57:35.803Z,16.20
2022-10-24T12:00:03.778Z,16.40
2022-10-24T12:02:49.433Z,16.60
2022-10-24T12:05:41.801Z,16.70
2022-10-24T12:08:14.445Z,16.80
2022-10-24T12:10:58.772Z,16.90
2022-10-24T12:13:53.085Z,16.90
2022-10-24T12:16:39.480Z,17.00
2022-10-24T12:19:18.450Z,17.00
2022-10-24T12:21:53.495Z,17.10
2022-10-24T12:24:34.519Z,17.10
2022-10-24T12:27:04.327Z,17.10
2022-10-24T12:29:34.512Z,17.10
2022-10-24T12:32:29.833Z,17.00
2022-10-24T12:35:28.993Z,17.00
2022-10-24T12:37:49.437Z,17.00
2022-10-24T12:40:52.699Z,16.90
2022-10-24T12:43:37.214Z,16.90
2022-10-24T12:46:21.822Z,16.80
2022-10-24T12:49:00.062Z,16.70
2022-10-24T12:51:40.274Z,16.60
2022-10-24T12:54:12.731Z,16.50
2022-10-24T12:56:52.199Z,16.50
2022-10-24T12:59:31.467Z,16.40
2022-10-24T13:02:13.885Z,16.40
2022-10-24T13:04:56.089Z,16.30
2022-10-24T13:07:26.089Z,16.30
2022-10-24T13:10:11.560Z,16.30
2022-10-24T13:13:05.675Z,16.20
2022-10-24T13:15:48.667Z,16.10
2022-10-24T13:18:40.244Z,16.10
2022-10-24T13:21:22.325Z,16.10
2022-10-24T13:23:49.707Z,16.20
2022-10-24T13:26:38.172Z,16.20
2022-10-24T13:29:11.584Z,16.40
2022-10-24T13:31:42.040Z,16.50
2022-10-24T13:34:14.709Z,16.60
2022-10-24T13:36:43.229Z,16.70
2022-10-24T13:39:19.142Z,16.70
2022-10-24T13:41:50.016Z,16.80
2022-10-24T13:44:35.299Z,16.70
2022-10-24T13:47:10.907Z,16.70
2022-10-24T13:49:44.712Z,16.60
2022-10-24T13:52:22.531Z,16.50
2022-10-24T13:54:56.634Z,16.50
2022-10-24T13:57:25.542Z,16.40
2022-10-24T13:59:58.867Z,16.40
2022-10-24T14:02:32.321Z,16.30
2022-10-24T14:05:05.472Z,16.30
2022-10-24T14:07:33.826Z,16.20
2022-10-24T14:10:08.602Z,16.20
2022-10-24T14:12:38.782Z,16.20
2022-10-24T14:15:15.810Z,16.10
2022-10-24T14:18:04.637Z,16.10
2022-10-24T14:20:33.942Z,16.00
2022-10-24T14:23:01.381Z,15.90
2022-10-24T14:25:36.750Z,15.90
2022-10-24T14:28:26.248Z,15.80
2022-10-24T14:30:55.372Z,15.70
2022-10-24T14:33:41.482Z,15.70
2022-10-24T14:36:08.891Z,15.60
2022-10-24T14:38:36.686Z,15.50
2022-10-24T14:41:09.639Z,15.50
2022-10-24T14:43:42.122Z,15.40
2022-10-24T14:46:28.055Z,15.40
2022-10-24T14:48:55.387Z,15.30
2022-10-24T14:51:26.484Z,15.30
2022-10-24T14:53:54.120Z,15.30
2022-10-24T14:56:25.467Z,15.20
2022-10-24T14:58:54.668Z,15.20
2022-10-24T15:01:23.410Z,15.10
2022-10-24T15:03:56.611Z,15.10
2022-10-24T15:06:37.520Z,15.00
2022-10-24T15:09:17.586Z,15.00
2022-10-24T15:11:59.115Z,15.00
2022-10-24T15:14:41.116Z,14.90
2022-10-24T15:17:16.784Z,14.90
2022-10-24T15:19:46.020Z,14.90
2022-10-24T15:22:37.604Z,14.90
2022-10-24T15:25:16.224Z,14.90
2022-10-24T15:27:45.660Z,15.00
2022-10-24T15:30:22.880Z,15.00
2022-10-24T15:32:51.099Z,15.10
2022-10-24T15:35:34.705Z,15.10
2022-10-24T15:38:13.475Z,15.00
2022-10-24T15:40:48.355Z,15.00
2022-10-24T15:43:18.702Z,14.90
2022-10-24T15:45:46.303Z,14.90
2022-10-24T15:48:13.084Z,14.80
2022-10-24T15:50:45.511Z,14.80
2022-10-24T15:53:21.115Z,14.70
2022-10-24T15:55:48.314Z,14.60
2022-10-24T15:58:16.982Z,14.60
2022-10-24T16:00:44.092Z,14.50
2022-10-24T16:03:17.104Z,14.40
2022-10-24T16:05:48.797Z,14.40
2022-10-24T16:08:18.933Z,14.30
2022-10-24T16:10:49.509Z,14.20
2022-10-24T16:13:18.094Z,14.10
2022-10-24T16:15:50.131Z,14.00
2022-10-24T16:18:25.965Z,13.90
2022-10-24T16:20:54.801Z,13.90
2022-10-24T16:23:23.148Z,13.80
2022-10-24T16:25:50.250Z,13.70
2022-10-24T16:28:22.787Z,13.70
2022-10-24T16:30:50.588Z,13.60
2022-10-24T16:33:22.318Z,13.60
2022-10-24T16:35:49.615Z,13.50
2022-10-24T16:38:17.735Z,13.40
2022-10-24T16:41:00.701Z,13.40
2022-10-24T16:43:28.761Z,13.30
2022-10-24T16:46:03.859Z,13.30
2022-10-24T16:48:31.795Z,13.20
2022-10-24T16:50:59.368Z,13.20
2022-10-24T16:53:26.396Z,13.10
2022-10-24T16:55:54.885Z,13.10
2022-10-24T16:58:23.853Z,13.10
2022-10-24T17:00:50.801Z,13.00
2022-10-24T17:03:17.734Z,13.00
2022-10-24T17:08:13.619Z,12.90
2022-10-24T17:10:40.414Z,12.90
2022-10-24T17:13:07.687Z,12.80
2022-10-24T17:15:34.621Z,12.70
2022-10-24T17:18:01.933Z,12.70
2022-10-24T17:20:28.889Z,12.70
2022-10-24T17:22:56.031Z,12.60
2022-10-24T17:25:25.983Z,12.60
2022-10-24T17:27:53.504Z,12.50
2022-10-24T17:30:26.472Z,12.50
2022-10-24T17:32:53.895Z,12.50
2022-10-24T17:35:23.651Z,12.50
2022-10-24T17:38:26.287Z,12.50
2022-10-24T17:40:56.034Z,12.50
2022-10-24T17:43:25.673Z,12.60
2022-10-24T17:45:54.286Z,12.60
2022-10-24T17:48:22.315Z,12.50
2022-10-24T17:50:49.373Z,12.50
2022-10-24T17:53:18.433Z,12.50
2022-10-24T17:55:47.453Z,12.50
2022-10-24T17:58:15.765Z,12.50
2022-10-24T18:00:44.272Z,12.60
2022-10-24T18:03:11.586Z,12.60
2022-10-24T18:05:39.050Z,12.60
2022-10-24T18:08:08.511Z,12.60
2022-10-24T18:10:37.935Z,12.70
2022-10-24T18:13:05.767Z,12.70
2022-10-24T18:15:32.884Z,12.70
2022-10-24T18:17:59.925Z,12.70
2022-10-24T18:20:26.829Z,12.70
2022-10-24T18:22:54.617Z,12.70
2022-10-24T18:25:23.113Z,12.70
2022-10-24T18:27:51.144Z,12.70
2022-10-24T18:30:19.608Z,12.70
2022-10-24T18:32:47.166Z,12.70
2022-10-24T18:35:14.467Z,12.70
2022-10-24T18:37:41.436Z,12.70
2022-10-24T18:40:09.490Z,12.60
2022-10-24T18:43:05.175Z,12.70
2022-10-24T18:45:32.698Z,12.60
2022-10-24T18:47:59.749Z,12.60
2022-10-24T18:50:26.999Z,12.60
2022-10-24T18:53:13.317Z,12.60
2022-10-24T18:55:40.424Z,12.60
2022-10-24T18:58:15.994Z,12.60
2022-10-24T19:00:43.048Z,12.60
2022-10-24T19:03:34.143Z,12.60
2022-10-24T19:06:21.293Z,12.60
2022-10-24T19:08:48.253Z,12.60
2022-10-24T19:11:15.442Z,12.60
2022-10-24T19:13:44.768Z,12.60
2022-10-24T19:16:18.339Z,12.60
2022-10-24T19:18:54.111Z,12.60
2022-10-24T19:21:21.465Z,12.40
2022-10-24T19:23:49.740Z,12.10
2022-10-24T19:26:16.880Z,11.80
2022-10-24T19:28:44.159Z,11.70
2022-10-24T19:31:13.375Z,11.60
2022-10-24T19:33:41.258Z,11.50
2022-10-24T19:36:09.473Z,11.40
2022-10-24T19:38:36.538Z,11.30
2022-10-24T19:41:07.267Z,11.30
2022-10-24T19:43:34.491Z,11.30
2022-10-24T19:46:21.090Z,11.30
2022-10-24T19:48:49.553Z,11.30
2022-10-24T19:51:19.165Z,11.30
2022-10-24T19:53:46.765Z,11.20
2022-10-24T19:56:21.409Z,11.20
2022-10-24T19:58:50.882Z,11.20
2022-10-24T20:01:20.734Z,11.20
2022-10-24T20:03:49.141Z,11.30
2022-10-24T20:06:16.695Z,11.30
2022-10-24T20:08:45.163Z,11.30
2022-10-24T20:11:15.308Z,11.20
2022-10-24T20:13:43.290Z,11.20
2022-10-24T20:16:10.967Z,11.10
2022-10-24T20:21:13.405Z,11.10
2022-10-24T20:23:41.685Z,11.00
2022-10-24T20:26:15.487Z,11.00
2022-10-24T20:28:45.950Z,11.00
2022-10-24T20:31:31.581Z,11.00
2022-10-24T20:34:05.190Z,11.00
2022-10-24T20:36:39.617Z,10.90
2022-10-24T20:39:08.717Z,10.90
2022-10-24T20:41:36.287Z,10.90
2022-10-24T20:44:04.950Z,10.90
2022-10-24T20:46:32.231Z,10.90
2022-10-24T20:48:58.982Z,10.90
2022-10-24T20:51:25.994Z,10.90
2022-10-24T20:53:52.925Z,10.90
2022-10-24T20:56:22.600Z,10.80
2022-10-24T20:58:50.843Z,10.90
2022-10-24T21:01:23.940Z,10.90
2022-10-24T21:03:52.241Z,10.80
2022-10-24T21:06:23.453Z,10.90
2022-10-24T21:08:52.005Z,10.90
2022-10-24T21:11:25.134Z,10.90
2022-10-24T21:13:54.194Z,11.00
2022-10-24T21:16:21.533Z,11.00
2022-10-24T21:18:48.728Z,11.00
2022-10-24T21:21:16.573Z,11.10
2022-10-24T21:23:44.162Z,11.10
2022-10-24T21:26:13.420Z,11.10
2022-10-24T21:28:40.433Z,11.10
2022-10-24T21:31:10.387Z,11.10
2022-10-24T21:33:37.623Z,11.10
2022-10-24T21:36:06.772Z,11.10
2022-10-24T21:38:33.980Z,11.10
2022-10-24T21:41:08.290Z,11.10
2022-10-24T21:43:40.277Z,11.10
2022-10-24T21:46:15.752Z,11.00
2022-10-24T21:48:44.323Z,11.00
2022-10-24T21:51:12.547Z,11.00
2022-10-24T21:53:46.372Z,11.00
2022-10-24T21:56:16.344Z,11.00
2022-10-24T21:59:06.836Z,10.90
2022-10-24T22:01:37.695Z,10.90
2022-10-24T22:04:06.651Z,10.90
2022-10-24T22:06:35.546Z,10.80
2022-10-24T22:09:04.226Z,10.80
2022-10-24T22:11:32.536Z,10.80
2022-10-24T22:13:59.749Z,10.70
2022-10-24T22:16:29.894Z,10.70
2022-10-24T22:19:00.680Z,10.70
2022-10-24T22:21:33.689Z,10.60
2022-10-24T22:24:09.339Z,10.60
2022-10-24T22:26:37.156Z,10.60
2022-10-24T22:29:05.578Z,10.50
2022-10-24T22:31:32.991Z,10.50
2022-10-24T22:34:00.218Z,10.40
2022-10-24T22:37:30.888Z,10.40
2022-10-24T22:39:58.003Z,10.30
2022-10-24T22:42:24.965Z,10.20
2022-10-24T22:44:52.396Z,10.20
2022-10-24T22:47:50.899Z,10.10
2022-10-24T22:50:49.482Z,10.10
2022-10-24T22:53:25.471Z,10.10
2022-10-24T22:56:03.022Z,10.10
2022-10-24T22:58:30.369Z,10.00
2022-10-24T23:01:20.736Z,9.90
2022-10-24T23:03:57.327Z,9.90
2022-10-24T23:06:34.980Z,9.80
2022-10-24T23:09:02.835Z,9.80
2022-10-24T23:11:29.848Z,9.70
2022-10-24T23:13:58.000Z,9.70
2022-10-24T23:16:37.353Z,9.60
2022-10-24T23:19:23.844Z,9.60
2022-10-24T23:22:15.180Z,9.50
2022-10-24T23:24:42.218Z,9.40
2022-10-24T23:27:12.052Z,9.30
2022-10-24T23:29:44.099Z,9.30
2022-10-24T23:32:24.143Z,9.20
2022-10-24T23:34:52.464Z,9.10
2022-10-24T23:37:28.026Z,9.00
2022-10-24T23:39:55.600Z,9.00
2022-10-24T23:42:24.121Z,9.00
2022-10-24T23:44:51.507Z,9.00
2022-10-24T23:47:30.295Z,9.00
2022-10-24T23:50:10.636Z,9.00
2022-10-24T23:53:13.300Z,8.90
2022-10-24T23:55:40.345Z,8.90
2022-10-24T23:58:10.993Z,8.80
